createdAt,value
2019-05-05T17:19:55.869Z,3.38
2019-05-05T17:24:44.848Z,3.54
2019-05-05T17:30:21.003Z,3.52
2019-05-05T17:34:59.858Z,3.32
2019-05-05T17:40:16.310Z,3.91
2019-05-05T17:45:15.430Z,3.72
2019-05-05T17:50:31.531Z,3.96
2019-05-05T17:55:30.160Z,5.33
2019-05-05T18:00:47.130Z,4.30
2019-05-05T18:05:44.994Z,5.53
2019-05-05T18:11:07.106Z,4.80
2019-05-05T18:15:55.957Z,3.05
2019-05-05T18:21:14.200Z,4.34
2019-05-05T18:26:11.155Z,3.03
2019-05-05T18:31:30.208Z,8.51
2019-05-05T18:36:29.302Z,6.80
2019-05-05T18:41:44.568Z,3.04
2019-05-05T18:46:43.629Z,3.04
2019-05-05T18:52:05.884Z,4.03
2019-05-05T18:56:54.271Z,4.15
2019-05-05T19:02:16.221Z,3.86
2019-05-05T19:07:04.572Z,4.04
2019-05-05T19:12:19.579Z,6.92
2019-05-05T19:17:28.562Z,5.69
2019-05-05T19:22:24.831Z,5.59
2019-05-05T19:27:39.815Z,4.90
2019-05-05T19:32:51.165Z,5.21
2019-05-05T19:37:38.175Z,6.11
2019-05-05T19:43:00.072Z,5.11
2019-05-05T19:47:48.529Z,5.04
2019-05-05T19:53:04.526Z,4.52
2019-05-05T19:58:03.647Z,4.32
2019-05-05T20:03:21.137Z,4.33
2019-05-05T20:08:19.531Z,4.96
2019-05-05T20:13:33.120Z,5.88
2019-05-05T20:18:31.650Z,4.89
2019-05-05T20:23:43.819Z,6.77
2019-05-05T20:28:42.554Z,5.10
2019-05-05T20:34:04.891Z,6.31
2019-05-05T20:38:54.798Z,5.45
2019-05-05T20:44:14.868Z,6.36
2019-05-05T20:49:03.880Z,7.22
2019-05-05T20:54:24.186Z,5.73
2019-05-05T20:59:26.739Z,5.17
2019-05-05T21:04:27.996Z,5.46
2019-05-05T21:09:26.302Z,7.50
2019-05-05T21:14:48.414Z,8.03
2019-05-05T21:19:36.958Z,8.08
2019-05-05T21:24:57.911Z,7.66
2019-05-05T21:29:46.251Z,7.12
2019-05-05T21:35:07.786Z,6.00
2019-05-05T21:39:56.685Z,8.12
2019-05-05T21:45:15.741Z,7.89
2019-05-05T21:50:17.235Z,7.31
2019-05-05T21:55:28.283Z,10.29
2019-05-05T22:00:16.625Z,7.41
2019-05-05T22:05:31.180Z,7.86
2019-05-05T22:10:29.527Z,7.35
2019-05-05T22:15:45.435Z,7.68
2019-05-05T22:20:44.202Z,9.63
2019-05-05T22:26:05.122Z,10.60
2019-05-05T22:30:55.425Z,9.05
2019-05-05T22:36:14.764Z,7.33
2019-05-05T22:41:03.625Z,10.02
2019-05-05T22:46:24.629Z,8.56
2019-05-05T22:51:14.395Z,7.36
2019-05-05T22:56:33.907Z,9.55
2019-05-05T23:01:24.057Z,8.23
2019-05-05T23:06:36.600Z,9.10
2019-05-05T23:11:34.951Z,11.21
2019-05-05T23:16:56.382Z,10.25
2019-05-05T23:21:44.716Z,8.71
2019-05-05T23:27:00.154Z,8.80
2019-05-05T23:31:58.492Z,8.15
2019-05-05T23:37:19.921Z,8.66
2019-05-05T23:42:08.250Z,8.63
2019-05-05T23:47:24.789Z,9.38
2019-05-05T23:52:23.892Z,9.92
2019-05-05T23:57:39.935Z,10.02
